<?xml version="1.0" encoding="UTF-8" standalone="no" ?>
<gpx xmlns="http://www.topografix.com/GPX/1/1" xmlns:xsi="http://www.w3.org/2001/XMLSchema-instance" xsi:schemaLocation="http://www.topografix.com/GPX/1/1 http://www.topografix.com/GPX/1/1/gpx.xsd" version="1.1" creator="VisuGPX - https://www.visugpx.com">
  <metadata>
    <name>Edirne-Sarajevo</name>
  </metadata>
  <trk>
    <name><![CDATA[Tour d'Europe: étape 608]]></name>
    <extensions>
      <line xmlns="http://www.topografix.com/GPX/gpx_style/0/2">
        <color>880000</color>
        <width>4</width>
      </line>
    </extensions>
    <trkseg>
      <trkpt lat="41.67244" lon="26.5575">
        <ele>92.189913</ele>
        <time>2022-02-26T06:34:58.387Z</time>
      </trkpt>
      <trkpt lat="41.67261" lon="26.55607">
        <ele>91.456935</ele>
        <time>2022-02-26T06:39:11.249Z</time>
      </trkpt>
      <trkpt lat="41.67143" lon="26.55398">
        <ele>85.303579</ele>
        <time>2022-02-26T06:40:23.248Z</time>
      </trkpt>
      <trkpt lat="41.66966" lon="26.55461">
        <ele>82.657298</ele>
        <time>2022-02-26T06:44:31.257Z</time>
      </trkpt>
      <trkpt lat="41.66765" lon="26.55405">
        <ele>79.765724</ele>
        <time>2022-02-26T06:45:38.279Z</time>
      </trkpt>
      <trkpt lat="41.66561" lon="26.55307">
        <ele>80.258752</ele>
        <time>2022-02-26T06:46:39.243Z</time>
      </trkpt>
      <trkpt lat="41.66356" lon="26.55218">
        <ele>79.065222</ele>
        <time>2022-02-26T06:47:40.250Z</time>
      </trkpt>
      <trkpt lat="41.66218" lon="26.55046">
        <ele>82.78577</ele>
        <time>2022-02-26T06:48:47.246Z</time>
      </trkpt>
      <trkpt lat="41.6615" lon="26.54817">
        <ele>88.368894</ele>
        <time>2022-02-26T06:50:00.252Z</time>
      </trkpt>
      <trkpt lat="41.66096" lon="26.54585">
        <ele>91.489758</ele>
        <time>2022-02-26T06:57:04.260Z</time>
      </trkpt>
      <trkpt lat="41.66028" lon="26.54327">
        <ele>89.669087</ele>
        <time>2022-02-26T06:58:07.235Z</time>
      </trkpt>
      <trkpt lat="41.65957" lon="26.54056">
        <ele>87.013327</ele>
        <time>2022-02-26T06:59:08.265Z</time>
      </trkpt>
      <trkpt lat="41.65883" lon="26.53772">
        <ele>87.646702</ele>
        <time>2022-02-26T07:00:15.258Z</time>
      </trkpt>
      <trkpt lat="41.65815" lon="26.53513">
        <ele>82.224516</ele>
        <time>2022-02-26T07:01:23.283Z</time>
      </trkpt>
      <trkpt lat="41.65747" lon="26.53252">
        <ele>79.693807</ele>
        <time>2022-02-26T07:02:27.241Z</time>
      </trkpt>
      <trkpt lat="41.65665" lon="26.52989">
        <ele>77.666914</ele>
        <time>2022-02-26T07:03:35.263Z</time>
      </trkpt>
      <trkpt lat="41.65596" lon="26.5272">
        <ele>79.379438</ele>
        <time>2022-02-26T07:04:43.249Z</time>
      </trkpt>
      <trkpt lat="41.65464" lon="26.52523">
        <ele>87.982283</ele>
        <time>2022-02-26T07:05:52.248Z</time>
      </trkpt>
      <trkpt lat="41.65297" lon="26.5232">
        <ele>91.851758</ele>
        <time>2022-02-26T07:07:00.235Z</time>
      </trkpt>
      <trkpt lat="41.65253" lon="26.52199">
        <ele>91.647085</ele>
        <time>2022-02-26T07:15:28.254Z</time>
      </trkpt>
      <trkpt lat="41.65361" lon="26.51962">
        <ele>88.86705</ele>
        <time>2022-02-26T07:16:32.260Z</time>
      </trkpt>
      <trkpt lat="41.65417" lon="26.51708">
        <ele>81.287269</ele>
        <time>2022-02-26T07:17:35.256Z</time>
      </trkpt>
      <trkpt lat="41.65434" lon="26.51437">
        <ele>74.208162</ele>
        <time>2022-02-26T07:18:36.249Z</time>
      </trkpt>
      <trkpt lat="41.65532" lon="26.5118">
        <ele>73.506715</ele>
        <time>2022-02-26T07:19:40.260Z</time>
      </trkpt>
      <trkpt lat="41.6563" lon="26.50921">
        <ele>76.61305</ele>
        <time>2022-02-26T07:20:46.271Z</time>
      </trkpt>
      <trkpt lat="41.65717" lon="26.5068">
        <ele>76.10796</ele>
        <time>2022-02-26T07:21:56.251Z</time>
      </trkpt>
      <trkpt lat="41.65783" lon="26.50422">
        <ele>73.563719</ele>
        <time>2022-02-26T07:23:15.326Z</time>
      </trkpt>
      <trkpt lat="41.6585" lon="26.50135">
        <ele>74.189208</ele>
        <time>2022-02-26T07:24:39.282Z</time>
      </trkpt>
      <trkpt lat="41.65814" lon="26.49863">
        <ele>80.385209</ele>
        <time>2022-02-26T07:25:43.269Z</time>
      </trkpt>
      <trkpt lat="41.65704" lon="26.49613">
        <ele>79.82411</ele>
        <time>2022-02-26T07:26:43.269Z</time>
      </trkpt>
      <trkpt lat="41.65568" lon="26.49362">
        <ele>80.363463</ele>
        <time>2022-02-26T07:27:46.249Z</time>
      </trkpt>
      <trkpt lat="41.65495" lon="26.491">
        <ele>82.388171</ele>
        <time>2022-02-26T07:28:53.277Z</time>
      </trkpt>
      <trkpt lat="41.65396" lon="26.48895">
        <ele>79.766347</ele>
        <time>2022-02-26T07:34:20.309Z</time>
      </trkpt>
      <trkpt lat="41.65278" lon="26.48647">
        <ele>81.136733</ele>
        <time>2022-02-26T07:35:41.271Z</time>
      </trkpt>
      <trkpt lat="41.65127" lon="26.48439">
        <ele>83.969482</ele>
        <time>2022-02-26T07:36:44.285Z</time>
      </trkpt>
      <trkpt lat="41.64994" lon="26.48231">
        <ele>84.131727</ele>
        <time>2022-02-26T07:37:44.257Z</time>
      </trkpt>
      <trkpt lat="41.6487" lon="26.48027">
        <ele>90.467575</ele>
        <time>2022-02-26T07:49:25.283Z</time>
      </trkpt>
      <trkpt lat="41.64733" lon="26.47809">
        <ele>92.022054</ele>
        <time>2022-02-26T07:50:29.265Z</time>
      </trkpt>
      <trkpt lat="41.64602" lon="26.47596">
        <ele>94.988544</ele>
        <time>2022-02-26T07:51:30.272Z</time>
      </trkpt>
      <trkpt lat="41.64759" lon="26.4745">
        <ele>97.366514</ele>
        <time>2022-02-26T07:52:26.279Z</time>
      </trkpt>
      <trkpt lat="41.64941" lon="26.47289">
        <ele>89.490636</ele>
        <time>2022-02-26T07:53:21.260Z</time>
      </trkpt>
      <trkpt lat="41.65017" lon="26.47246">
        <ele>83.314622</ele>
        <time>2022-02-26T07:58:44.291Z</time>
      </trkpt>
      <trkpt lat="41.64827" lon="26.4737">
        <ele>79.35314</ele>
        <time>2022-02-26T07:59:34.266Z</time>
      </trkpt>
      <trkpt lat="41.64634" lon="26.47524">
        <ele>92.081001</ele>
        <time>2022-02-26T08:00:38.276Z</time>
      </trkpt>
      <trkpt lat="41.6452" lon="26.47333">
        <ele>93.890997</ele>
        <time>2022-02-26T08:01:41.278Z</time>
      </trkpt>
      <trkpt lat="41.6447" lon="26.47018">
        <ele>94.45016</ele>
        <time>2022-02-26T08:02:41.258Z</time>
      </trkpt>
      <trkpt lat="41.6436" lon="26.46758">
        <ele>92.700254</ele>
        <time>2022-02-26T08:03:31.261Z</time>
      </trkpt>
      <trkpt lat="41.64202" lon="26.46534">
        <ele>93.893268</ele>
        <time>2022-02-26T08:04:24.282Z</time>
      </trkpt>
      <trkpt lat="41.64074" lon="26.46467">
        <ele>94.612789</ele>
        <time>2022-02-26T08:05:32.276Z</time>
      </trkpt>
      <trkpt lat="41.64266" lon="26.46287">
        <ele>93.472709</ele>
        <time>2022-02-26T08:06:20.268Z</time>
      </trkpt>
      <trkpt lat="41.64449" lon="26.46119">
        <ele>94.508383</ele>
        <time>2022-02-26T08:07:01.263Z</time>
      </trkpt>
      <trkpt lat="41.64644" lon="26.45947">
        <ele>95.737692</ele>
        <time>2022-02-26T08:07:55.298Z</time>
      </trkpt>
      <trkpt lat="41.64849" lon="26.45761">
        <ele>100.664199</ele>
        <time>2022-02-26T08:08:58.281Z</time>
      </trkpt>
      <trkpt lat="41.65023" lon="26.45615">
        <ele>101.404003</ele>
        <time>2022-02-26T08:09:59.326Z</time>
      </trkpt>
      <trkpt lat="41.6521" lon="26.45441">
        <ele>99.445517</ele>
        <time>2022-02-26T08:10:59.280Z</time>
      </trkpt>
      <trkpt lat="41.65415" lon="26.45261">
        <ele>105.256867</ele>
        <time>2022-02-26T08:11:58.268Z</time>
      </trkpt>
      <trkpt lat="41.65602" lon="26.45087">
        <ele>106.050217</ele>
        <time>2022-02-26T08:12:50.264Z</time>
      </trkpt>
      <trkpt lat="41.65807" lon="26.44907">
        <ele>99.539693</ele>
        <time>2022-02-26T08:13:48.283Z</time>
      </trkpt>
      <trkpt lat="41.65996" lon="26.44741">
        <ele>99.00781</ele>
        <time>2022-02-26T08:14:57.279Z</time>
      </trkpt>
      <trkpt lat="41.66178" lon="26.44575">
        <ele>106.084762</ele>
        <time>2022-02-26T08:16:13.264Z</time>
      </trkpt>
      <trkpt lat="41.66353" lon="26.44423">
        <ele>106.6479</ele>
        <time>2022-02-26T08:17:13.261Z</time>
      </trkpt>
      <trkpt lat="41.66557" lon="26.44233">
        <ele>107.865431</ele>
        <time>2022-02-26T08:18:16.282Z</time>
      </trkpt>
      <trkpt lat="41.66714" lon="26.44076">
        <ele>112.203988</ele>
        <time>2022-02-26T08:19:34.261Z</time>
      </trkpt>
      <trkpt lat="41.66821" lon="26.43837">
        <ele>116.937038</ele>
        <time>2022-02-26T08:20:54.318Z</time>
      </trkpt>
      <trkpt lat="41.66844" lon="26.43526">
        <ele>117.785367</ele>
        <time>2022-02-26T08:22:06.278Z</time>
      </trkpt>
      <trkpt lat="41.66843" lon="26.43195">
        <ele>118.206009</ele>
        <time>2022-02-26T08:23:05.303Z</time>
      </trkpt>
      <trkpt lat="41.66839" lon="26.42873">
        <ele>116.988461</ele>
        <time>2022-02-26T08:24:05.277Z</time>
      </trkpt>
      <trkpt lat="41.66774" lon="26.4255">
        <ele>111.507655</ele>
        <time>2022-02-26T08:25:08.312Z</time>
      </trkpt>
      <trkpt lat="41.66721" lon="26.42228">
        <ele>114.42066</ele>
        <time>2022-02-26T08:26:08.288Z</time>
      </trkpt>
      <trkpt lat="41.66717" lon="26.41903">
        <ele>120.165089</ele>
        <time>2022-02-26T08:27:08.320Z</time>
      </trkpt>
      <trkpt lat="41.66718" lon="26.41611">
        <ele>123.86885</ele>
        <time>2022-02-26T08:28:19.289Z</time>
      </trkpt>
      <trkpt lat="41.66715" lon="26.41331">
        <ele>126.681221</ele>
        <time>2022-02-26T08:29:49.290Z</time>
      </trkpt>
      <trkpt lat="41.66675" lon="26.41055">
        <ele>122.609542</ele>
        <time>2022-02-26T08:31:03.285Z</time>
      </trkpt>
      <trkpt lat="41.66591" lon="26.4079">
        <ele>120.623395</ele>
        <time>2022-02-26T08:32:03.283Z</time>
      </trkpt>
      <trkpt lat="41.66495" lon="26.40504">
        <ele>122.535426</ele>
        <time>2022-02-26T08:33:06.360Z</time>
      </trkpt>
      <trkpt lat="41.66398" lon="26.40214">
        <ele>123.079309</ele>
        <time>2022-02-26T08:34:04.271Z</time>
      </trkpt>
      <trkpt lat="41.66307" lon="26.39954">
        <ele>120.696316</ele>
        <time>2022-02-26T08:34:51.281Z</time>
      </trkpt>
      <trkpt lat="41.66235" lon="26.39686">
        <ele>114.407471</ele>
        <time>2022-02-26T08:35:33.310Z</time>
      </trkpt>
      <trkpt lat="41.66213" lon="26.39364">
        <ele>108.038655</ele>
        <time>2022-02-26T08:36:13.273Z</time>
      </trkpt>
      <trkpt lat="41.66212" lon="26.39046">
        <ele>105.263159</ele>
        <time>2022-02-26T08:36:55.278Z</time>
      </trkpt>
      <trkpt lat="41.66209" lon="26.38737">
        <ele>108.950899</ele>
        <time>2022-02-26T08:37:59.272Z</time>
      </trkpt>
      <trkpt lat="41.66177" lon="26.38441">
        <ele>109.13169</ele>
        <time>2022-02-26T08:38:59.286Z</time>
      </trkpt>
      <trkpt lat="41.66135" lon="26.38174">
        <ele>108.239099</ele>
        <time>2022-02-26T08:39:44.301Z</time>
      </trkpt>
      <trkpt lat="41.66093" lon="26.37909">
        <ele>107.127503</ele>
        <time>2022-02-26T08:40:28.307Z</time>
      </trkpt>
      <trkpt lat="41.66052" lon="26.3766">
        <ele>105.760273</ele>
        <time>2022-02-26T08:41:08.301Z</time>
      </trkpt>
      <trkpt lat="41.66011" lon="26.37399">
        <ele>104.288923</ele>
        <time>2022-02-26T08:41:48.277Z</time>
      </trkpt>
      <trkpt lat="41.65965" lon="26.37103">
        <ele>106.153773</ele>
        <time>2022-02-26T08:42:38.302Z</time>
      </trkpt>
      <trkpt lat="41.6591" lon="26.36771">
        <ele>107.64348</ele>
        <time>2022-02-26T08:43:38.271Z</time>
      </trkpt>
      <trkpt lat="41.65889" lon="26.36438">
        <ele>107.068609</ele>
        <time>2022-02-26T08:44:38.282Z</time>
      </trkpt>
      <trkpt lat="41.65939" lon="26.36167">
        <ele>107.722581</ele>
        <time>2022-02-26T08:45:24.299Z</time>
      </trkpt>
      <trkpt lat="41.66024" lon="26.35869">
        <ele>109.706998</ele>
        <time>2022-02-26T08:46:22.286Z</time>
      </trkpt>
      <trkpt lat="41.6615" lon="26.35643">
        <ele>114.158237</ele>
        <time>2022-02-26T08:47:22.247Z</time>
      </trkpt>
      <trkpt lat="41.6629" lon="26.35416">
        <ele>118.421918</ele>
        <time>2022-02-26T08:48:25.303Z</time>
      </trkpt>
      <trkpt lat="41.66471" lon="26.35452">
        <ele>112.569285</ele>
        <time>2022-02-26T08:49:19.327Z</time>
      </trkpt>
      <trkpt lat="41.66677" lon="26.35437">
        <ele>116.530487</ele>
        <time>2022-02-26T08:50:19.289Z</time>
      </trkpt>
      <trkpt lat="41.66888" lon="26.35451">
        <ele>122.181813</ele>
        <time>2022-02-26T08:51:26.319Z</time>
      </trkpt>
      <trkpt lat="41.67102" lon="26.354">
        <ele>122.412609</ele>
        <time>2022-02-26T08:52:42.275Z</time>
      </trkpt>
      <trkpt lat="41.67294" lon="26.3531">
        <ele>121.959945</ele>
        <time>2022-02-26T08:56:18.271Z</time>
      </trkpt>
      <trkpt lat="41.67478" lon="26.35134">
        <ele>125.777725</ele>
        <time>2022-02-26T08:57:19.270Z</time>
      </trkpt>
      <trkpt lat="41.67576" lon="26.34882">
        <ele>130.418359</ele>
        <time>2022-02-26T08:58:39.295Z</time>
      </trkpt>
      <trkpt lat="41.67696" lon="26.34656">
        <ele>129.644623</ele>
        <time>2022-02-26T08:59:42.320Z</time>
      </trkpt>
      <trkpt lat="41.67796" lon="26.34394">
        <ele>127.25884</ele>
        <time>2022-02-26T09:00:50.272Z</time>
      </trkpt>
      <trkpt lat="41.67816" lon="26.34122">
        <ele>130.166168</ele>
        <time>2022-02-26T09:01:51.286Z</time>
      </trkpt>
      <trkpt lat="41.67935" lon="26.33886">
        <ele>134.788192</ele>
        <time>2022-02-26T09:02:51.284Z</time>
      </trkpt>
      <trkpt lat="41.68082" lon="26.33694">
        <ele>143.815359</ele>
        <time>2022-02-26T09:03:57.289Z</time>
      </trkpt>
      <trkpt lat="41.68249" lon="26.33516">
        <ele>137.648797</ele>
        <time>2022-02-26T09:05:16.282Z</time>
      </trkpt>
      <trkpt lat="41.68306" lon="26.33242">
        <ele>137.172688</ele>
        <time>2022-02-26T09:06:16.287Z</time>
      </trkpt>
      <trkpt lat="41.68461" lon="26.33058">
        <ele>149.531172</ele>
        <time>2022-02-26T09:07:17.269Z</time>
      </trkpt>
      <trkpt lat="41.68609" lon="26.32867">
        <ele>152.134242</ele>
        <time>2022-02-26T09:08:51.265Z</time>
      </trkpt>
      <trkpt lat="41.68622" lon="26.32606">
        <ele>147.129685</ele>
        <time>2022-02-26T09:09:57.272Z</time>
      </trkpt>
      <trkpt lat="41.687" lon="26.3235">
        <ele>152.933987</ele>
        <time>2022-02-26T09:11:18.282Z</time>
      </trkpt>
      <trkpt lat="41.68822" lon="26.32115">
        <ele>151.129306</ele>
        <time>2022-02-26T09:12:28.316Z</time>
      </trkpt>
      <trkpt lat="41.68917" lon="26.31888">
        <ele>152.088022</ele>
        <time>2022-02-26T09:13:33.285Z</time>
      </trkpt>
      <trkpt lat="41.68948" lon="26.31616">
        <ele>159.130931</ele>
        <time>2022-02-26T09:14:55.265Z</time>
      </trkpt>
      <trkpt lat="41.69138" lon="26.31519">
        <ele>172.312175</ele>
        <time>2022-02-26T09:16:11.267Z</time>
      </trkpt>
      <trkpt lat="41.69329" lon="26.31364">
        <ele>168.774443</ele>
        <time>2022-02-26T09:17:12.292Z</time>
      </trkpt>
      <trkpt lat="41.69444" lon="26.31139">
        <ele>158.965259</ele>
        <time>2022-02-26T09:18:04.280Z</time>
      </trkpt>
      <trkpt lat="41.69549" lon="26.30878">
        <ele>158.424023</ele>
        <time>2022-02-26T09:18:56.279Z</time>
      </trkpt>
      <trkpt lat="41.69658" lon="26.30596">
        <ele>156.415179</ele>
        <time>2022-02-26T09:19:52.295Z</time>
      </trkpt>
      <trkpt lat="41.69779" lon="26.30313">
        <ele>151.306265</ele>
        <time>2022-02-26T09:20:35.293Z</time>
      </trkpt>
      <trkpt lat="41.70019" lon="26.30089">
        <ele>133.007114</ele>
        <time>2022-02-26T09:21:17.301Z</time>
      </trkpt>
      <trkpt lat="41.70196" lon="26.29846">
        <ele>114.063112</ele>
        <time>2022-02-26T09:21:57.312Z</time>
      </trkpt>
      <trkpt lat="41.7033" lon="26.29601">
        <ele>96.955774</ele>
        <time>2022-02-26T09:22:38.284Z</time>
      </trkpt>
      <trkpt lat="41.7047" lon="26.29357">
        <ele>81.251077</ele>
        <time>2022-02-26T09:23:25.272Z</time>
      </trkpt>
      <trkpt lat="41.7048" lon="26.29088">
        <ele>86.455314</ele>
        <time>2022-02-26T09:24:23.272Z</time>
      </trkpt>
      <trkpt lat="41.70428" lon="26.2883">
        <ele>86.706114</ele>
        <time>2022-02-26T09:25:36.282Z</time>
      </trkpt>
      <trkpt lat="41.70225" lon="26.28716">
        <ele>91.077809</ele>
        <time>2022-02-26T09:26:37.273Z</time>
      </trkpt>
      <trkpt lat="41.7002" lon="26.2858">
        <ele>95.910223</ele>
        <time>2022-02-26T09:27:32.276Z</time>
      </trkpt>
      <trkpt lat="41.69923" lon="26.28364">
        <ele>90.174466</ele>
        <time>2022-02-26T09:28:48.331Z</time>
      </trkpt>
      <trkpt lat="41.69954" lon="26.28067">
        <ele>84.304616</ele>
        <time>2022-02-26T09:29:38.280Z</time>
      </trkpt>
      <trkpt lat="41.69936" lon="26.27759">
        <ele>82.776035</ele>
        <time>2022-02-26T09:30:33.283Z</time>
      </trkpt>
      <trkpt lat="41.69877" lon="26.27487">
        <ele>88.087824</ele>
        <time>2022-02-26T09:31:36.288Z</time>
      </trkpt>
      <trkpt lat="41.69817" lon="26.27204">
        <ele>90.662338</ele>
        <time>2022-02-26T09:33:00.297Z</time>
      </trkpt>
      <trkpt lat="41.69759" lon="26.26936">
        <ele>94.584798</ele>
        <time>2022-02-26T09:34:20.285Z</time>
      </trkpt>
      <trkpt lat="41.69735" lon="26.26653">
        <ele>97.661015</ele>
        <time>2022-02-26T09:35:38.280Z</time>
      </trkpt>
      <trkpt lat="41.69765" lon="26.2636">
        <ele>97.640469</ele>
        <time>2022-02-26T09:36:48.278Z</time>
      </trkpt>
      <trkpt lat="41.69852" lon="26.26081">
        <ele>101.297438</ele>
        <time>2022-02-26T09:37:42.279Z</time>
      </trkpt>
      <trkpt lat="41.69963" lon="26.25871">
        <ele>99.619205</ele>
        <time>2022-02-26T09:38:23.286Z</time>
      </trkpt>
      <trkpt lat="41.7012" lon="26.25667">
        <ele>102.343333</ele>
        <time>2022-02-26T09:39:13.273Z</time>
      </trkpt>
      <trkpt lat="41.70275" lon="26.2544">
        <ele>102.788112</ele>
        <time>2022-02-26T09:40:16.286Z</time>
      </trkpt>
      <trkpt lat="41.70398" lon="26.25199">
        <ele>102.405024</ele>
        <time>2022-02-26T09:41:16.283Z</time>
      </trkpt>
      <trkpt lat="41.70499" lon="26.24941">
        <ele>103.336092</ele>
        <time>2022-02-26T09:42:16.278Z</time>
      </trkpt>
      <trkpt lat="41.7059" lon="26.24663">
        <ele>105.501535</ele>
        <time>2022-02-26T09:43:19.266Z</time>
      </trkpt>
      <trkpt lat="41.70675" lon="26.24405">
        <ele>102.677235</ele>
        <time>2022-02-26T09:44:07.285Z</time>
      </trkpt>
      <trkpt lat="41.70757" lon="26.24166">
        <ele>101.314614</ele>
        <time>2022-02-26T09:44:47.295Z</time>
      </trkpt>
      <trkpt lat="41.7084" lon="26.23916">
        <ele>100.762989</ele>
        <time>2022-02-26T09:45:29.278Z</time>
      </trkpt>
      <trkpt lat="41.7092" lon="26.23673">
        <ele>99.974733</ele>
        <time>2022-02-26T09:46:09.278Z</time>
      </trkpt>
      <trkpt lat="41.71008" lon="26.23418">
        <ele>95.658549</ele>
        <time>2022-02-26T09:46:49.291Z</time>
      </trkpt>
      <trkpt lat="41.71141" lon="26.23059">
        <ele>94.763483</ele>
        <time>2022-02-26T09:47:31.275Z</time>
      </trkpt>
      <trkpt lat="41.71257" lon="26.22802">
        <ele>96.759956</ele>
        <time>2022-02-26T09:48:23.276Z</time>
      </trkpt>
      <trkpt lat="41.71356" lon="26.22564">
        <ele>110.183576</ele>
        <time>2022-02-26T09:49:40.284Z</time>
      </trkpt>
      <trkpt lat="41.7144" lon="26.22316">
        <ele>114.111524</ele>
        <time>2022-02-26T09:51:05.286Z</time>
      </trkpt>
      <trkpt lat="41.71506" lon="26.22049">
        <ele>103.398011</ele>
        <time>2022-02-26T09:52:16.247Z</time>
      </trkpt>
      <trkpt lat="41.7158" lon="26.21772">
        <ele>101.259007</ele>
        <time>2022-02-26T09:53:04.262Z</time>
      </trkpt>
      <trkpt lat="41.71649" lon="26.21464">
        <ele>103.555252</ele>
        <time>2022-02-26T09:53:58.259Z</time>
      </trkpt>
      <trkpt lat="41.71684" lon="26.21198">
        <ele>112.550506</ele>
        <time>2022-02-26T09:55:00.256Z</time>
      </trkpt>
      <trkpt lat="41.71698" lon="26.20911">
        <ele>119.393406</ele>
        <time>2022-02-26T09:56:16.256Z</time>
      </trkpt>
      <trkpt lat="41.71703" lon="26.20636">
        <ele>122.205773</ele>
        <time>2022-02-26T09:57:40.262Z</time>
      </trkpt>
      <trkpt lat="41.71712" lon="26.20368">
        <ele>122.03565</ele>
        <time>2022-02-26T09:58:59.248Z</time>
      </trkpt>
      <trkpt lat="41.71717" lon="26.20045">
        <ele>110.206544</ele>
        <time>2022-02-26T09:59:46.248Z</time>
      </trkpt>
      <trkpt lat="41.71735" lon="26.19695">
        <ele>104.193494</ele>
        <time>2022-02-26T10:00:17.270Z</time>
      </trkpt>
      <trkpt lat="41.71742" lon="26.19378">
        <ele>92.45633</ele>
        <time>2022-02-26T10:00:43.262Z</time>
      </trkpt>
      <trkpt lat="41.71755" lon="26.19042">
        <ele>89.751601</ele>
        <time>2022-02-26T10:01:24.335Z</time>
      </trkpt>
      <trkpt lat="41.71781" lon="26.18703">
        <ele>92.37428</ele>
        <time>2022-02-26T10:02:27.287Z</time>
      </trkpt>
      <trkpt lat="41.71915" lon="26.18442">
        <ele>94.037963</ele>
        <time>2022-02-26T10:03:26.267Z</time>
      </trkpt>
      <trkpt lat="41.72082" lon="26.18209">
        <ele>97.394844</ele>
        <time>2022-02-26T10:04:25.268Z</time>
      </trkpt>
      <trkpt lat="41.72275" lon="26.18012">
        <ele>88.975938</ele>
        <time>2022-02-26T10:05:21.291Z</time>
      </trkpt>
      <trkpt lat="41.72466" lon="26.17984">
        <ele>89.167125</ele>
        <time>2022-02-26T10:06:01.322Z</time>
      </trkpt>
      <trkpt lat="41.7267" lon="26.17996">
        <ele>91.087316</ele>
        <time>2022-02-26T10:06:47.285Z</time>
      </trkpt>
      <trkpt lat="41.72901" lon="26.17986">
        <ele>95.967437</ele>
        <time>2022-02-26T10:07:50.255Z</time>
      </trkpt>
      <trkpt lat="41.73074" lon="26.17841">
        <ele>106.327726</ele>
        <time>2022-02-26T10:08:57.260Z</time>
      </trkpt>
      <trkpt lat="41.73218" lon="26.17651">
        <ele>115.779702</ele>
        <time>2022-02-26T10:10:37.262Z</time>
      </trkpt>
      <trkpt lat="41.73361" lon="26.17463">
        <ele>116.208919</ele>
        <time>2022-02-26T10:12:18.271Z</time>
      </trkpt>
      <trkpt lat="41.73531" lon="26.17245">
        <ele>118.083887</ele>
        <time>2022-02-26T10:13:25.253Z</time>
      </trkpt>
      <trkpt lat="41.7369" lon="26.17053">
        <ele>118.062456</ele>
        <time>2022-02-26T10:14:32.259Z</time>
      </trkpt>
      <trkpt lat="41.73831" lon="26.16852">
        <ele>126.115115</ele>
        <time>2022-02-26T10:18:48.281Z</time>
      </trkpt>
      <trkpt lat="41.73995" lon="26.1669">
        <ele>120.261276</ele>
        <time>2022-02-26T10:23:42.277Z</time>
      </trkpt>
      <trkpt lat="41.74203" lon="26.16608">
        <ele>111.591642</ele>
        <time>2022-02-26T10:24:33.249Z</time>
      </trkpt>
      <trkpt lat="41.74456" lon="26.16617">
        <ele>101.696272</ele>
        <time>2022-02-26T10:25:13.249Z</time>
      </trkpt>
      <trkpt lat="41.74741" lon="26.16634">
        <ele>88.23771</ele>
        <time>2022-02-26T10:25:55.252Z</time>
      </trkpt>
      <trkpt lat="41.74988" lon="26.16653">
        <ele>85.848697</ele>
        <time>2022-02-26T10:29:31.311Z</time>
      </trkpt>
      <trkpt lat="41.75223" lon="26.16691">
        <ele>85.920822</ele>
        <time>2022-02-26T10:30:31.253Z</time>
      </trkpt>
      <trkpt lat="41.75443" lon="26.16672">
        <ele>89.181975</ele>
        <time>2022-02-26T10:31:34.252Z</time>
      </trkpt>
      <trkpt lat="41.75635" lon="26.16589">
        <ele>90.047198</ele>
        <time>2022-02-26T10:32:41.323Z</time>
      </trkpt>
      <trkpt lat="41.75795" lon="26.16412">
        <ele>93.875181</ele>
        <time>2022-02-26T10:40:59.276Z</time>
      </trkpt>
      <trkpt lat="41.75961" lon="26.1629">
        <ele>95.047771</ele>
        <time>2022-02-26T10:45:20.281Z</time>
      </trkpt>
      <trkpt lat="41.76122" lon="26.16131">
        <ele>94.23701</ele>
        <time>2022-02-26T10:46:23.273Z</time>
      </trkpt>
      <trkpt lat="41.76275" lon="26.15966">
        <ele>95.739221</ele>
        <time>2022-02-26T10:47:24.258Z</time>
      </trkpt>
      <trkpt lat="41.76434" lon="26.15767">
        <ele>93.526172</ele>
        <time>2022-02-26T10:48:17.259Z</time>
      </trkpt>
      <trkpt lat="41.76566" lon="26.15506">
        <ele>94.393349</ele>
        <time>2022-02-26T10:49:05.268Z</time>
      </trkpt>
      <trkpt lat="41.7669" lon="26.15259">
        <ele>92.739377</ele>
        <time>2022-02-26T10:49:57.268Z</time>
      </trkpt>
      <trkpt lat="41.76772" lon="26.14964">
        <ele>94.492221</ele>
        <time>2022-02-26T10:50:57.251Z</time>
      </trkpt>
      <trkpt lat="41.76974" lon="26.14914">
        <ele>90.545056</ele>
        <time>2022-02-26T10:52:31.255Z</time>
      </trkpt>
      <trkpt lat="41.77135" lon="26.14798">
        <ele>84.756774</ele>
        <time>2022-02-26T10:55:10.247Z</time>
      </trkpt>
      <trkpt lat="41.77308" lon="26.14636">
        <ele>84.358039</ele>
        <time>2022-02-26T10:56:14.247Z</time>
      </trkpt>
      <trkpt lat="41.77482" lon="26.14658">
        <ele>95.706682</ele>
        <time>2022-02-26T10:57:19.248Z</time>
      </trkpt>
      <trkpt lat="41.77661" lon="26.14619">
        <ele>94.223104</ele>
        <time>2022-02-26T10:58:19.253Z</time>
      </trkpt>
      <trkpt lat="41.77887" lon="26.14565">
        <ele>93.101121</ele>
        <time>2022-02-26T10:59:23.267Z</time>
      </trkpt>
      <trkpt lat="41.77934" lon="26.14253">
        <ele>95.145699</ele>
        <time>2022-02-26T11:00:21.249Z</time>
      </trkpt>
      <trkpt lat="41.77961" lon="26.1398">
        <ele>94.656562</ele>
        <time>2022-02-26T11:01:05.244Z</time>
      </trkpt>
      <trkpt lat="41.78044" lon="26.1372">
        <ele>87.42211</ele>
        <time>2022-02-26T11:01:51.268Z</time>
      </trkpt>
      <trkpt lat="41.78194" lon="26.13546">
        <ele>78.653384</ele>
        <time>2022-02-26T11:02:33.307Z</time>
      </trkpt>
      <trkpt lat="41.78362" lon="26.13423">
        <ele>80.392191</ele>
        <time>2022-02-26T11:03:14.283Z</time>
      </trkpt>
      <trkpt lat="41.78572" lon="26.13374">
        <ele>90.129114</ele>
        <time>2022-02-26T11:04:01.268Z</time>
      </trkpt>
      <trkpt lat="41.78645" lon="26.13165">
        <ele>91.224168</ele>
        <time>2022-02-26T11:05:21.279Z</time>
      </trkpt>
      <trkpt lat="41.78758" lon="26.12931">
        <ele>93.158735</ele>
        <time>2022-02-26T11:06:45.283Z</time>
      </trkpt>
      <trkpt lat="41.78886" lon="26.1272">
        <ele>92.389603</ele>
        <time>2022-02-26T11:07:55.272Z</time>
      </trkpt>
      <trkpt lat="41.79048" lon="26.12543">
        <ele>88.051293</ele>
        <time>2022-02-26T11:09:01.253Z</time>
      </trkpt>
      <trkpt lat="41.79224" lon="26.124">
        <ele>90.688396</ele>
        <time>2022-02-26T11:12:23.242Z</time>
      </trkpt>
      <trkpt lat="41.79378" lon="26.12223">
        <ele>91.158949</ele>
        <time>2022-02-26T11:13:59.247Z</time>
      </trkpt>
      <trkpt lat="41.79527" lon="26.12015">
        <ele>96.06696</ele>
        <time>2022-02-26T11:15:45.326Z</time>
      </trkpt>
      <trkpt lat="41.79663" lon="26.11825">
        <ele>100.187418</ele>
        <time>2022-02-26T11:17:25.299Z</time>
      </trkpt>
      <trkpt lat="41.79841" lon="26.11687">
        <ele>100.660946</ele>
        <time>2022-02-26T11:18:51.255Z</time>
      </trkpt>
      <trkpt lat="41.8002" lon="26.11548">
        <ele>103.107966</ele>
        <time>2022-02-26T11:20:37.320Z</time>
      </trkpt>
      <trkpt lat="41.80195" lon="26.11417">
        <ele>104.663919</ele>
        <time>2022-02-26T11:22:17.283Z</time>
      </trkpt>
      <trkpt lat="41.80368" lon="26.11283">
        <ele>105.536887</ele>
        <time>2022-02-26T11:24:08.264Z</time>
      </trkpt>
      <trkpt lat="41.80552" lon="26.11156">
        <ele>107.000936</ele>
        <time>2022-02-26T11:25:59.278Z</time>
      </trkpt>
      <trkpt lat="41.80733" lon="26.11055">
        <ele>102.848479</ele>
        <time>2022-02-26T11:27:32.283Z</time>
      </trkpt>
      <trkpt lat="41.80911" lon="26.10924">
        <ele>95.786784</ele>
        <time>2022-02-26T11:28:56.289Z</time>
      </trkpt>
      <trkpt lat="41.81091" lon="26.10782">
        <ele>97.361591</ele>
        <time>2022-02-26T11:30:38.277Z</time>
      </trkpt>
      <trkpt lat="41.81253" lon="26.1062">
        <ele>98.44102</ele>
        <time>2022-02-26T11:32:23.290Z</time>
      </trkpt>
      <trkpt lat="41.81428" lon="26.10509">
        <ele>106.758794</ele>
        <time>2022-02-26T11:34:07.257Z</time>
      </trkpt>
      <trkpt lat="41.81634" lon="26.10399">
        <ele>106.942136</ele>
        <time>2022-02-26T11:35:29.261Z</time>
      </trkpt>
      <trkpt lat="41.81824" lon="26.10288">
        <ele>107.670936</ele>
        <time>2022-02-26T11:36:58.274Z</time>
      </trkpt>
      <trkpt lat="41.82005" lon="26.10171">
        <ele>102.2808</ele>
        <time>2022-02-26T11:38:25.333Z</time>
      </trkpt>
      <trkpt lat="41.82203" lon="26.10064">
        <ele>98.2919</ele>
        <time>2022-02-26T11:39:48.273Z</time>
      </trkpt>
      <trkpt lat="41.82397" lon="26.09954">
        <ele>97.480405</ele>
        <time>2022-02-26T11:41:09.257Z</time>
      </trkpt>
      <trkpt lat="41.82591" lon="26.09841">
        <ele>97.700472</ele>
        <time>2022-02-26T11:42:23.301Z</time>
      </trkpt>
      <trkpt lat="41.82797" lon="26.09724">
        <ele>99.923851</ele>
        <time>2022-02-26T11:43:46.312Z</time>
      </trkpt>
      <trkpt lat="41.82983" lon="26.09623">
        <ele>99.466844</ele>
        <time>2022-02-26T11:44:55.269Z</time>
      </trkpt>
      <trkpt lat="41.83197" lon="26.09495">
        <ele>99.476718</ele>
        <time>2022-02-26T11:45:55.262Z</time>
      </trkpt>
      <trkpt lat="41.83425" lon="26.09365">
        <ele>102.450704</ele>
        <time>2022-02-26T11:46:58.271Z</time>
      </trkpt>
      <trkpt lat="41.83481" lon="26.09155">
        <ele>106.669862</ele>
        <time>2022-02-26T11:47:58.274Z</time>
      </trkpt>
      <trkpt lat="41.83668" lon="26.09029">
        <ele>108.788588</ele>
        <time>2022-02-26T11:49:11.279Z</time>
      </trkpt>
      <trkpt lat="41.83862" lon="26.08908">
        <ele>112.010927</ele>
        <time>2022-02-26T11:50:23.274Z</time>
      </trkpt>
      <trkpt lat="41.84044" lon="26.0879">
        <ele>113.855629</ele>
        <time>2022-02-26T11:51:28.262Z</time>
      </trkpt>
      <trkpt lat="41.8414" lon="26.08603">
        <ele>112.541229</ele>
        <time>2022-02-26T11:52:37.260Z</time>
      </trkpt>
      <trkpt lat="41.84348" lon="26.08508">
        <ele>114.858613</ele>
        <time>2022-02-26T11:53:40.274Z</time>
      </trkpt>
      <trkpt lat="41.84492" lon="26.08339">
        <ele>116.333655</ele>
        <time>2022-02-26T11:54:43.269Z</time>
      </trkpt>
      <trkpt lat="41.84461" lon="26.08268">
        <ele>116.333655</ele>
        <time>2022-02-26T12:00:50.251Z</time>
      </trkpt>
    </trkseg>
  </trk>
</gpx>